AXM307 WMKP-WMKK
Flight info
| Callsign | AXM307 |
|---|---|
| Flight time | 0h 49m |
| Altitude | 27000 |
| Route | BOGUK DCT ANBIK Y507 KAKAK KAKAK1G |
| Aircraft | A20N/M-SDE2E3FGHIRWXY/LB1 |
Departure
| Time | 2026-04-25 12:41 |
|---|---|
| Airport | Penang International Airport (WMKP) |
Arrival
| Time | 2026-04-25 13:31 |
|---|---|
| Airport | Kuala Lumpur International Airport (WMKK) |
| Time | Latitude | Longitude | Altitude | Speed | Heading |
|---|---|---|---|---|---|
| 2026-04-25 12:04 | 5.29135 | 100.26567 | 28 ft | 0 kts | 311° |
| 2026-04-25 12:34 | 5.29128 | 100.26575 | 29 ft | 3 kts | 311° |
| 2026-04-25 12:34 | 5.29120 | 100.26585 | 31 ft | 3 kts | 311° |
| 2026-04-25 12:35 | 5.29113 | 100.26592 | 26 ft | 0 kts | 311° |
| 2026-04-25 12:37 | 5.29103 | 100.26604 | 27 ft | 2 kts | 311° |
| 2026-04-25 12:37 | 5.29094 | 100.26617 | 30 ft | 2 kts | 310° |
| 2026-04-25 12:37 | 5.29089 | 100.26632 | 30 ft | 2 kts | 241° |
| 2026-04-25 12:37 | 5.29092 | 100.26637 | 32 ft | 0 kts | 220° |
| 2026-04-25 12:38 | 5.29069 | 100.26620 | 31 ft | 9 kts | 217° |
| 2026-04-25 12:38 | 5.28996 | 100.26558 | 26 ft | 18 kts | 221° |
| 2026-04-25 12:39 | 5.28898 | 100.26486 | 26 ft | 15 kts | 191° |
| 2026-04-25 12:39 | 5.28797 | 100.26543 | 29 ft | 22 kts | 129° |
| 2026-04-25 12:39 | 5.28704 | 100.26585 | 27 ft | 18 kts | 156° |
| 2026-04-25 12:39 | 5.28646 | 100.26696 | 26 ft | 22 kts | 76° |
| 2026-04-25 12:40 | 5.28696 | 100.26761 | 26 ft | 0 kts | 41° |
| 2026-04-25 12:40 | 5.28846 | 100.26896 | 28 ft | 63 kts | 42° |
| 2026-04-25 12:41 | 5.29333 | 100.27338 | 27 ft | 124 kts | 42° |
| 2026-04-25 12:41 | 5.30085 | 100.28016 | 84 ft | 162 kts | 38° |
| 2026-04-25 12:41 | 5.30960 | 100.28758 | 479 ft | 167 kts | 41° |
| 2026-04-25 12:41 | 5.31841 | 100.29537 | 924 ft | 170 kts | 43° |
| 2026-04-25 12:42 | 5.32523 | 100.30494 | 1462 ft | 182 kts | 66° |
| 2026-04-25 12:42 | 5.32673 | 100.30912 | 1550 ft | 196 kts | 78° |
| 2026-04-25 12:42 | 5.32634 | 100.33494 | 2051 ft | 248 kts | 97° |
| 2026-04-25 12:42 | 5.32395 | 100.35260 | 2643 ft | 262 kts | 98° |
| 2026-04-25 12:43 | 5.32136 | 100.37091 | 3402 ft | 267 kts | 98° |
| 2026-04-25 12:43 | 5.31877 | 100.38939 | 4252 ft | 268 kts | 97° |
| 2026-04-25 12:43 | 5.31391 | 100.42417 | 6957 ft | 206 kts | 97° |
| 2026-04-25 12:44 | 5.31136 | 100.43724 | 8232 ft | 193 kts | 108° |
| 2026-04-25 12:44 | 5.30402 | 100.44927 | 8635 ft | 212 kts | 129° |
| 2026-04-25 12:44 | 5.28236 | 100.47238 | 9653 ft | 242 kts | 132° |
| 2026-04-25 12:45 | 5.27043 | 100.48500 | 10106 ft | 257 kts | 132° |
| 2026-04-25 12:45 | 5.25787 | 100.49850 | 10538 ft | 272 kts | 131° |
| 2026-04-25 12:45 | 5.23067 | 100.52777 | 11265 ft | 307 kts | 132° |
| 2026-04-25 12:46 | 5.21559 | 100.54388 | 11532 ft | 326 kts | 132° |
| 2026-04-25 12:46 | 5.19981 | 100.56073 | 11970 ft | 336 kts | 132° |
| 2026-04-25 12:46 | 5.18371 | 100.57793 | 12568 ft | 340 kts | 132° |
| 2026-04-25 12:46 | 5.16735 | 100.59541 | 13194 ft | 345 kts | 131° |
| 2026-04-25 12:47 | 5.15086 | 100.61304 | 13826 ft | 348 kts | 131° |
| 2026-04-25 12:47 | 5.13421 | 100.63084 | 14404 ft | 352 kts | 131° |
| 2026-04-25 12:47 | 5.11739 | 100.64882 | 14990 ft | 355 kts | 131° |
| 2026-04-25 12:47 | 5.10037 | 100.66701 | 15585 ft | 358 kts | 131° |
| 2026-04-25 12:48 | 5.08325 | 100.68532 | 16175 ft | 361 kts | 131° |
| 2026-04-25 12:48 | 5.06598 | 100.70380 | 16771 ft | 365 kts | 131° |
| 2026-04-25 12:48 | 5.04855 | 100.72243 | 17342 ft | 368 kts | 131° |
| 2026-04-25 12:48 | 5.03096 | 100.74124 | 17894 ft | 371 kts | 131° |
| 2026-04-25 12:49 | 5.01323 | 100.76019 | 18397 ft | 374 kts | 131° |
| 2026-04-25 12:49 | 4.99534 | 100.77929 | 18830 ft | 378 kts | 132° |
| 2026-04-25 12:49 | 4.97584 | 100.79724 | 19268 ft | 382 kts | 141° |
| 2026-04-25 12:49 | 4.95300 | 100.81121 | 19711 ft | 388 kts | 153° |
| 2026-04-25 12:50 | 4.93620 | 100.81754 | 20000 ft | 392 kts | 161° |
| 2026-04-25 12:50 | 4.90962 | 100.82409 | 20443 ft | 396 kts | 166° |
| 2026-04-25 12:50 | 4.87345 | 100.83039 | 21034 ft | 400 kts | 169° |
| 2026-04-25 12:50 | 4.84578 | 100.83434 | 21513 ft | 403 kts | 170° |
| 2026-04-25 12:51 | 4.81782 | 100.83820 | 21989 ft | 406 kts | 170° |
| 2026-04-25 12:51 | 4.79919 | 100.84081 | 22298 ft | 408 kts | 169° |
| 2026-04-25 12:51 | 4.77099 | 100.84490 | 22763 ft | 411 kts | 169° |
| 2026-04-25 12:51 | 4.74265 | 100.84917 | 23208 ft | 414 kts | 169° |
| 2026-04-25 12:52 | 4.71405 | 100.85359 | 23604 ft | 417 kts | 169° |
| 2026-04-25 12:52 | 4.68533 | 100.85810 | 24017 ft | 419 kts | 169° |
| 2026-04-25 12:52 | 4.65641 | 100.86267 | 24428 ft | 421 kts | 169° |
| 2026-04-25 12:52 | 4.62738 | 100.86727 | 24845 ft | 423 kts | 169° |
| 2026-04-25 12:53 | 4.59822 | 100.87189 | 25250 ft | 426 kts | 169° |
| 2026-04-25 12:53 | 4.56887 | 100.87654 | 25644 ft | 428 kts | 169° |
| 2026-04-25 12:53 | 4.53933 | 100.88122 | 26037 ft | 430 kts | 169° |
| 2026-04-25 12:53 | 4.50964 | 100.88591 | 26421 ft | 432 kts | 169° |
| 2026-04-25 12:54 | 4.47986 | 100.89080 | 26756 ft | 434 kts | 166° |
| 2026-04-25 12:54 | 4.45106 | 100.89956 | 26873 ft | 432 kts | 156° |
| 2026-04-25 12:54 | 4.42359 | 100.91163 | 26874 ft | 432 kts | 153° |
| 2026-04-25 12:54 | 4.39641 | 100.92453 | 26876 ft | 432 kts | 153° |
| 2026-04-25 12:55 | 4.36935 | 100.93762 | 26873 ft | 432 kts | 153° |
| 2026-04-25 12:55 | 4.35145 | 100.94632 | 26872 ft | 432 kts | 152° |
| 2026-04-25 12:55 | 4.31522 | 100.96396 | 26861 ft | 432 kts | 152° |
| 2026-04-25 12:55 | 4.28818 | 100.97712 | 26864 ft | 432 kts | 152° |
| 2026-04-25 12:56 | 4.26146 | 100.99013 | 26859 ft | 432 kts | 152° |
| 2026-04-25 12:56 | 4.23438 | 101.00332 | 26859 ft | 432 kts | 152° |
| 2026-04-25 12:56 | 4.20731 | 101.01650 | 26869 ft | 432 kts | 152° |
| 2026-04-25 12:56 | 4.18027 | 101.02967 | 26866 ft | 432 kts | 152° |
| 2026-04-25 12:57 | 4.15319 | 101.04285 | 26868 ft | 432 kts | 152° |
| 2026-04-25 12:57 | 4.12613 | 101.05602 | 26866 ft | 432 kts | 152° |
| 2026-04-25 12:57 | 4.09910 | 101.06918 | 26866 ft | 432 kts | 152° |
| 2026-04-25 12:57 | 4.07202 | 101.08236 | 26862 ft | 432 kts | 152° |
| 2026-04-25 12:58 | 4.04501 | 101.09551 | 26868 ft | 432 kts | 152° |
| 2026-04-25 12:58 | 4.01789 | 101.10871 | 26871 ft | 432 kts | 152° |
| 2026-04-25 12:58 | 3.99083 | 101.12188 | 26870 ft | 432 kts | 152° |
| 2026-04-25 12:58 | 3.96412 | 101.13487 | 26869 ft | 432 kts | 152° |
| 2026-04-25 12:59 | 3.93709 | 101.14803 | 26864 ft | 432 kts | 152° |
| 2026-04-25 12:59 | 3.91008 | 101.16117 | 26868 ft | 432 kts | 152° |
| 2026-04-25 12:59 | 3.88304 | 101.17433 | 26869 ft | 432 kts | 152° |
| 2026-04-25 12:59 | 3.85602 | 101.18747 | 26866 ft | 432 kts | 152° |
| 2026-04-25 13:00 | 3.82900 | 101.20062 | 26871 ft | 432 kts | 152° |
| 2026-04-25 13:00 | 3.81105 | 101.20935 | 26876 ft | 432 kts | 152° |
| 2026-04-25 13:00 | 3.77550 | 101.22808 | 26866 ft | 430 kts | 144° |
| 2026-04-25 13:00 | 3.75266 | 101.24736 | 26878 ft | 428 kts | 134° |
| 2026-04-25 13:01 | 3.73197 | 101.26879 | 26870 ft | 428 kts | 132° |
| 2026-04-25 13:01 | 3.71166 | 101.29060 | 26872 ft | 429 kts | 131° |
| 2026-04-25 13:01 | 3.69134 | 101.31247 | 26871 ft | 429 kts | 131° |
| 2026-04-25 13:01 | 3.67122 | 101.33406 | 26873 ft | 430 kts | 132° |
| 2026-04-25 13:02 | 3.65080 | 101.35590 | 26869 ft | 430 kts | 132° |
| 2026-04-25 13:02 | 3.63032 | 101.37778 | 26870 ft | 430 kts | 132° |
| 2026-04-25 13:02 | 3.60985 | 101.39963 | 26874 ft | 430 kts | 132° |
| 2026-04-25 13:02 | 3.58937 | 101.42147 | 26873 ft | 430 kts | 132° |
| 2026-04-25 13:03 | 3.56886 | 101.44334 | 26875 ft | 430 kts | 132° |
| 2026-04-25 13:03 | 3.54838 | 101.46517 | 26879 ft | 430 kts | 132° |
| 2026-04-25 13:03 | 3.52785 | 101.48704 | 26883 ft | 430 kts | 132° |
| 2026-04-25 13:03 | 3.50762 | 101.50861 | 26879 ft | 430 kts | 132° |
| 2026-04-25 13:04 | 3.48715 | 101.53041 | 26878 ft | 430 kts | 132° |
| 2026-04-25 13:04 | 3.46667 | 101.55223 | 26883 ft | 430 kts | 132° |
| 2026-04-25 13:04 | 3.44620 | 101.57405 | 26879 ft | 430 kts | 132° |
| 2026-04-25 13:04 | 3.42574 | 101.59584 | 26880 ft | 430 kts | 132° |
| 2026-04-25 13:05 | 3.40521 | 101.61771 | 26893 ft | 430 kts | 132° |
| 2026-04-25 13:05 | 3.38477 | 101.63949 | 26887 ft | 430 kts | 132° |
| 2026-04-25 13:05 | 3.36426 | 101.66133 | 26887 ft | 430 kts | 132° |
| 2026-04-25 13:05 | 3.34374 | 101.68318 | 26891 ft | 430 kts | 132° |
| 2026-04-25 13:06 | 3.32328 | 101.70497 | 26885 ft | 430 kts | 132° |
| 2026-04-25 13:06 | 3.30277 | 101.72681 | 26887 ft | 430 kts | 132° |
| 2026-04-25 13:06 | 3.28229 | 101.74862 | 26883 ft | 430 kts | 132° |
| 2026-04-25 13:06 | 3.26236 | 101.77098 | 26893 ft | 430 kts | 129° |
| 2026-04-25 13:07 | 3.24332 | 101.79400 | 26897 ft | 429 kts | 128° |
| 2026-04-25 13:07 | 3.22443 | 101.81716 | 26895 ft | 429 kts | 128° |
| 2026-04-25 13:07 | 3.20557 | 101.84030 | 26894 ft | 429 kts | 128° |
| 2026-04-25 13:07 | 3.18666 | 101.86345 | 26894 ft | 429 kts | 128° |
| 2026-04-25 13:08 | 3.16782 | 101.88649 | 26630 ft | 425 kts | 128° |
| 2026-04-25 13:08 | 3.14947 | 101.90944 | 26220 ft | 419 kts | 124° |
| 2026-04-25 13:08 | 3.13490 | 101.93451 | 25664 ft | 416 kts | 112° |
| 2026-04-25 13:08 | 3.12476 | 101.96117 | 25111 ft | 414 kts | 108° |
| 2026-04-25 13:09 | 3.11476 | 101.98809 | 24656 ft | 411 kts | 113° |
| 2026-04-25 13:09 | 3.10089 | 102.01311 | 24174 ft | 410 kts | 121° |
| 2026-04-25 13:09 | 3.08539 | 102.03692 | 23685 ft | 407 kts | 122° |
| 2026-04-25 13:09 | 3.06756 | 102.05890 | 23251 ft | 405 kts | 133° |
| 2026-04-25 13:10 | 3.04709 | 102.07810 | 22702 ft | 403 kts | 136° |
| 2026-04-25 13:10 | 3.02587 | 102.09636 | 22177 ft | 400 kts | 140° |
| 2026-04-25 13:10 | 3.00238 | 102.11119 | 21653 ft | 400 kts | 149° |
| 2026-04-25 13:10 | 2.97765 | 102.12375 | 21132 ft | 397 kts | 151° |
| 2026-04-25 13:11 | 2.95241 | 102.13491 | 20633 ft | 396 kts | 159° |
| 2026-04-25 13:11 | 2.92575 | 102.14181 | 20144 ft | 395 kts | 165° |
| 2026-04-25 13:11 | 2.89896 | 102.14724 | 19727 ft | 390 kts | 166° |
| 2026-04-25 13:11 | 2.87201 | 102.15024 | 19204 ft | 391 kts | 177° |
| 2026-04-25 13:12 | 2.84487 | 102.14794 | 18691 ft | 393 kts | 191° |
| 2026-04-25 13:12 | 2.81977 | 102.13718 | 18224 ft | 396 kts | 212° |
| 2026-04-25 13:12 | 2.80007 | 102.11805 | 17686 ft | 397 kts | 234° |
| 2026-04-25 13:12 | 2.79142 | 102.10199 | 17328 ft | 397 kts | 249° |
| 2026-04-25 13:13 | 2.78695 | 102.06597 | 16673 ft | 391 kts | 278° |
| 2026-04-25 13:13 | 2.79520 | 102.04042 | 16135 ft | 385 kts | 301° |
| 2026-04-25 13:13 | 2.81185 | 102.01996 | 15662 ft | 377 kts | 318° |
| 2026-04-25 13:13 | 2.82911 | 102.00099 | 15045 ft | 374 kts | 304° |
| 2026-04-25 13:14 | 2.83887 | 101.97703 | 14434 ft | 371 kts | 284° |
| 2026-04-25 13:14 | 2.84390 | 101.95220 | 14078 ft | 357 kts | 281° |
| 2026-04-25 13:14 | 2.84816 | 101.92833 | 13847 ft | 340 kts | 281° |
| 2026-04-25 13:14 | 2.85228 | 101.90556 | 13646 ft | 324 kts | 281° |
| 2026-04-25 13:15 | 2.85577 | 101.88375 | 13399 ft | 311 kts | 274° |
| 2026-04-25 13:15 | 2.85321 | 101.86270 | 12934 ft | 306 kts | 248° |
| 2026-04-25 13:15 | 2.84318 | 101.84410 | 12424 ft | 302 kts | 236° |
| 2026-04-25 13:15 | 2.83144 | 101.82677 | 11928 ft | 300 kts | 233° |
| 2026-04-25 13:16 | 2.81805 | 101.81108 | 11454 ft | 294 kts | 216° |
| 2026-04-25 13:16 | 2.80009 | 101.80218 | 10942 ft | 287 kts | 188° |
| 2026-04-25 13:16 | 2.78075 | 101.80306 | 10594 ft | 273 kts | 159° |
| 2026-04-25 13:16 | 2.76396 | 101.81128 | 10278 ft | 269 kts | 146° |
| 2026-04-25 13:17 | 2.74855 | 101.82144 | 9930 ft | 269 kts | 143° |
| 2026-04-25 13:17 | 2.73316 | 101.83201 | 9558 ft | 268 kts | 143° |
| 2026-04-25 13:17 | 2.71782 | 101.84251 | 9195 ft | 266 kts | 143° |
| 2026-04-25 13:17 | 2.70254 | 101.85289 | 8854 ft | 265 kts | 144° |
| 2026-04-25 13:18 | 2.68730 | 101.86319 | 8514 ft | 264 kts | 144° |
| 2026-04-25 13:18 | 2.67211 | 101.87341 | 8170 ft | 262 kts | 144° |
| 2026-04-25 13:18 | 2.65701 | 101.88356 | 7847 ft | 260 kts | 144° |
| 2026-04-25 13:18 | 2.64218 | 101.89351 | 7644 ft | 253 kts | 144° |
| 2026-04-25 13:19 | 2.62762 | 101.90327 | 7339 ft | 251 kts | 144° |
| 2026-04-25 13:19 | 2.61324 | 101.91291 | 7150 ft | 245 kts | 144° |
| 2026-04-25 13:19 | 2.59931 | 101.92224 | 6971 ft | 238 kts | 144° |
| 2026-04-25 13:19 | 2.59466 | 101.92536 | 6869 ft | 238 kts | 144° |
| 2026-04-25 13:20 | 2.57177 | 101.94072 | 6371 ft | 238 kts | 144° |
| 2026-04-25 13:20 | 2.55804 | 101.94991 | 6066 ft | 237 kts | 144° |
| 2026-04-25 13:20 | 2.54313 | 101.95693 | 5737 ft | 240 kts | 165° |
| 2026-04-25 13:20 | 2.52649 | 101.95608 | 5397 ft | 246 kts | 200° |
| 2026-04-25 13:21 | 2.51288 | 101.94595 | 5077 ft | 248 kts | 229° |
| 2026-04-25 13:21 | 2.50253 | 101.93195 | 4683 ft | 252 kts | 236° |
| 2026-04-25 13:21 | 2.49305 | 101.91751 | 4541 ft | 243 kts | 236° |
| 2026-04-25 13:21 | 2.48390 | 101.90350 | 4534 ft | 239 kts | 237° |
| 2026-04-25 13:22 | 2.47790 | 101.88882 | 4557 ft | 220 kts | 266° |
| 2026-04-25 13:22 | 2.48172 | 101.87484 | 4541 ft | 209 kts | 311° |
| 2026-04-25 13:22 | 2.49260 | 101.86541 | 4539 ft | 207 kts | 331° |
| 2026-04-25 13:23 | 2.51487 | 101.85182 | 4508 ft | 169 kts | 331° |
| 2026-04-25 13:23 | 2.52435 | 101.84554 | 4375 ft | 164 kts | 330° |
| 2026-04-25 13:23 | 2.53372 | 101.83920 | 4167 ft | 162 kts | 329° |
| 2026-04-25 13:23 | 2.54314 | 101.83284 | 3908 ft | 163 kts | 329° |
| 2026-04-25 13:24 | 2.55255 | 101.82650 | 3657 ft | 163 kts | 329° |
| 2026-04-25 13:24 | 2.56170 | 101.82032 | 3464 ft | 154 kts | 330° |
| 2026-04-25 13:24 | 2.57040 | 101.81446 | 3250 ft | 147 kts | 329° |
| 2026-04-25 13:24 | 2.57881 | 101.80879 | 3057 ft | 145 kts | 330° |
| 2026-04-25 13:25 | 2.58716 | 101.80317 | 2888 ft | 145 kts | 330° |
| 2026-04-25 13:25 | 2.59550 | 101.79756 | 2699 ft | 145 kts | 329° |
| 2026-04-25 13:25 | 2.60384 | 101.79193 | 2515 ft | 144 kts | 330° |
| 2026-04-25 13:25 | 2.61215 | 101.78633 | 2333 ft | 143 kts | 329° |
| 2026-04-25 13:26 | 2.62040 | 101.78077 | 2149 ft | 143 kts | 328° |
| 2026-04-25 13:26 | 2.62861 | 101.77524 | 1959 ft | 141 kts | 328° |
| 2026-04-25 13:26 | 2.63671 | 101.76977 | 1788 ft | 141 kts | 328° |
| 2026-04-25 13:26 | 2.64482 | 101.76431 | 1604 ft | 140 kts | 328° |
| 2026-04-25 13:27 | 2.65290 | 101.75886 | 1419 ft | 140 kts | 327° |
| 2026-04-25 13:27 | 2.66095 | 101.75344 | 1235 ft | 139 kts | 327° |
| 2026-04-25 13:27 | 2.66893 | 101.74806 | 1061 ft | 138 kts | 327° |
| 2026-04-25 13:27 | 2.67686 | 101.74271 | 898 ft | 137 kts | 327° |
| 2026-04-25 13:28 | 2.68464 | 101.73747 | 747 ft | 137 kts | 327° |
| 2026-04-25 13:28 | 2.68729 | 101.73568 | 694 ft | 136 kts | 327° |
| 2026-04-25 13:28 | 2.70028 | 101.72693 | 410 ft | 135 kts | 327° |
| 2026-04-25 13:28 | 2.70803 | 101.72167 | 254 ft | 135 kts | 326° |
| 2026-04-25 13:29 | 2.71587 | 101.71653 | 67 ft | 135 kts | 327° |
| 2026-04-25 13:29 | 2.72200 | 101.71220 | 60 ft | 91 kts | 325° |
| 2026-04-25 13:29 | 2.72669 | 101.70907 | 55 ft | 75 kts | 324° |
| 2026-04-25 13:30 | 2.73430 | 101.70392 | 56 ft | 58 kts | 326° |
| 2026-04-25 13:30 | 2.73766 | 101.70170 | 58 ft | 57 kts | 326° |
| 2026-04-25 13:30 | 2.74095 | 101.69949 | 57 ft | 56 kts | 326° |
| 2026-04-25 13:31 | 2.74419 | 101.69862 | 65 ft | 17 kts | 55° |
| 2026-04-25 13:31 | 2.74492 | 101.69971 | 63 ft | 24 kts | 56° |
| 2026-04-25 13:31 | 2.74593 | 101.70118 | 62 ft | 25 kts | 55° |
| 2026-04-25 13:31 | 2.74688 | 101.70260 | 64 ft | 23 kts | 55° |
| 2026-04-25 13:32 | 2.74777 | 101.70387 | 65 ft | 21 kts | 58° |
| 2026-04-25 13:32 | 2.74855 | 101.70506 | 69 ft | 20 kts | 55° |
| 2026-04-25 13:32 | 2.74932 | 101.70620 | 71 ft | 21 kts | 56° |
| 2026-04-25 13:32 | 2.75024 | 101.70755 | 66 ft | 26 kts | 56° |
| 2026-04-25 13:33 | 2.75121 | 101.70896 | 70 ft | 11 kts | 61° |
| 2026-04-25 13:33 | 2.75104 | 101.70968 | 70 ft | 12 kts | 122° |
| 2026-04-25 13:33 | 2.75118 | 101.71061 | 70 ft | 17 kts | 57° |
| 2026-04-25 13:33 | 2.75166 | 101.71128 | 76 ft | 19 kts | 56° |
| 2026-04-25 13:34 | 2.75194 | 101.71272 | 72 ft | 12 kts | 137° |
| 2026-04-25 13:34 | 2.75179 | 101.71284 | 72 ft | 0 kts | 143° |
| 2026-04-25 13:35 | 2.75134 | 101.71315 | 73 ft | 12 kts | 145° |
| 2026-04-25 13:35 | 2.75055 | 101.71368 | 68 ft | 16 kts | 146° |
| 2026-04-25 13:35 | 2.75050 | 101.71466 | 73 ft | 17 kts | 60° |
| 2026-04-25 13:36 | 2.75118 | 101.71572 | 74 ft | 20 kts | 55° |
| 2026-04-25 13:36 | 2.75155 | 101.71625 | 75 ft | 9 kts | 56° |
| 2026-04-25 13:36 | 2.75181 | 101.71663 | 70 ft | 11 kts | 55° |
| 2026-04-25 13:36 | 2.75252 | 101.71694 | 74 ft | 14 kts | 341° |
| 2026-04-25 13:37 | 2.75389 | 101.71609 | 65 ft | 32 kts | 325° |
| 2026-04-25 13:37 | 2.75562 | 101.71492 | 68 ft | 47 kts | 326° |
| 2026-04-25 13:37 | 2.75872 | 101.71277 | 73 ft | 23 kts | 306° |
| 2026-04-25 13:37 | 2.75859 | 101.71174 | 70 ft | 26 kts | 237° |
| 2026-04-25 13:38 | 2.75697 | 101.71077 | 71 ft | 24 kts | 148° |
| 2026-04-25 13:38 | 2.75590 | 101.71148 | 70 ft | 29 kts | 148° |
| 2026-04-25 13:38 | 2.75457 | 101.71085 | 69 ft | 28 kts | 236° |
| 2026-04-25 13:38 | 2.75324 | 101.70906 | 68 ft | 37 kts | 236° |
| 2026-04-25 13:39 | 2.75176 | 101.70732 | 73 ft | 26 kts | 171° |
| 2026-04-25 13:39 | 2.75037 | 101.70770 | 70 ft | 11 kts | 223° |
| 2026-04-25 13:39 | 2.74972 | 101.70681 | 67 ft | 21 kts | 233° |
| 2026-04-25 13:39 | 2.74867 | 101.70528 | 67 ft | 32 kts | 237° |
| 2026-04-25 13:40 | 2.74715 | 101.70320 | 67 ft | 42 kts | 231° |
| 2026-04-25 13:40 | 2.74551 | 101.70057 | 66 ft | 48 kts | 236° |
| 2026-04-25 13:40 | 2.74391 | 101.69829 | 63 ft | 21 kts | 224° |
| 2026-04-25 13:40 | 2.74298 | 101.69818 | 58 ft | 10 kts | 155° |
| 2026-04-25 13:41 | 2.74199 | 101.69877 | 62 ft | 22 kts | 141° |
| 2026-04-25 13:41 | 2.74081 | 101.69967 | 55 ft | 15 kts | 150° |
| 2026-04-25 13:41 | 2.74006 | 101.70007 | 55 ft | 1 kts | 193° |
| 2026-04-25 13:41 | 2.73999 | 101.69982 | 60 ft | 9 kts | 254° |
| 2026-04-25 13:42 | 2.73964 | 101.69882 | 56 ft | 22 kts | 239° |
| 2026-04-25 13:42 | 2.73952 | 101.69719 | 56 ft | 29 kts | 316° |
| 2026-04-25 13:42 | 2.74097 | 101.69583 | 55 ft | 20 kts | 263° |
| 2026-04-25 13:42 | 2.74014 | 101.69440 | 45 ft | 30 kts | 234° |
| 2026-04-25 13:43 | 2.73817 | 101.69150 | 45 ft | 67 kts | 236° |
| 2026-04-25 13:43 | 2.73568 | 101.68784 | 45 ft | 58 kts | 235° |
| 2026-04-25 13:43 | 2.73497 | 101.68568 | 44 ft | 0 kts | 310° |
| 2026-04-25 13:43 | 2.73497 | 101.68567 | 44 ft | 1 kts | 308° |
| 2026-04-25 13:44 | 2.73476 | 101.68464 | 45 ft | 32 kts | 233° |
| 2026-04-25 13:44 | 2.73478 | 101.68318 | 43 ft | 20 kts | 323° |
| 2026-04-25 13:44 | 2.73647 | 101.68204 | 43 ft | 26 kts | 339° |
| 2026-04-25 13:44 | 2.73726 | 101.68260 | 45 ft | 33 kts | 54° |
| 2026-04-25 13:45 | 2.73814 | 101.68355 | 45 ft | 2 kts | 8° |
| 2026-04-25 13:45 | 2.73869 | 101.68398 | 45 ft | 9 kts | 58° |
| 2026-04-25 13:45 | 2.73916 | 101.68454 | 45 ft | 5 kts | 7° |
| 2026-04-25 13:45 | 2.73951 | 101.68445 | 45 ft | 7 kts | 333° |
| 2026-04-25 13:46 | 2.73977 | 101.68429 | 45 ft | 4 kts | 327° |
| 2026-04-25 13:46 | 2.73991 | 101.68420 | 45 ft | 2 kts | 327° |
| 2026-04-25 13:46 | 2.73996 | 101.68417 | 45 ft | 0 kts | 327° |
| 2026-04-25 13:46 | 2.73997 | 101.68417 | 45 ft | 0 kts | 327° |
| 2026-04-25 13:47 | 2.73998 | 101.68416 | 45 ft | 0 kts | 327° |
| 2026-04-25 13:47 | 2.73999 | 101.68415 | 45 ft | 0 kts | 327° |
| 2026-04-25 13:57 | 2.73983 | 101.68426 | 45 ft | 3 kts | 327° |
| 2026-04-25 13:57 | 2.73972 | 101.68433 | 43 ft | 0 kts | 327° |
| 2026-04-25 14:03 | 2.73959 | 101.68412 | 45 ft | 384 kts | 327° |
| 2026-04-25 14:03 | 2.73984 | 101.68450 | 43 ft | 0 kts | 327° |
| 2026-04-25 14:07 | 2.73986 | 101.68449 | 43 ft | 0 kts | 327° |
| 2026-04-25 14:07 | 2.73976 | 101.68455 | 43 ft | 2 kts | 327° |
| 2026-04-25 14:08 | 2.73962 | 101.68465 | 44 ft | 2 kts | 327° |
| 2026-04-25 14:08 | 2.73951 | 101.68476 | 44 ft | 2 kts | 271° |
| 2026-04-25 14:08 | 2.73955 | 101.68490 | 42 ft | 0 kts | 208° |
| 2026-04-25 14:09 | 2.73886 | 101.68424 | 45 ft | 27 kts | 235° |
| 2026-04-25 14:09 | 2.73752 | 101.68223 | 45 ft | 27 kts | 236° |
| 2026-04-25 14:09 | 2.73649 | 101.68201 | 42 ft | 17 kts | 149° |
| 2026-04-25 14:09 | 2.73611 | 101.68225 | 41 ft | 21 kts | 147° |
| 2026-04-25 14:10 | 2.73333 | 101.68412 | 43 ft | 38 kts | 146° |
| 2026-04-25 14:10 | 2.73087 | 101.68577 | 43 ft | 47 kts | 145° |
| 2026-04-25 14:10 | 2.72794 | 101.68777 | 42 ft | 54 kts | 145° |
| 2026-04-25 14:10 | 2.72461 | 101.69001 | 43 ft | 61 kts | 146° |
| 2026-04-25 14:11 | 2.72113 | 101.69234 | 43 ft | 56 kts | 147° |
| 2026-04-25 14:11 | 2.71876 | 101.69391 | 43 ft | 16 kts | 161° |
| 2026-04-25 14:11 | 2.71806 | 101.69342 | 43 ft | 0 kts | 268° |
| 2026-04-25 14:11 | 2.71803 | 101.69331 | 42 ft | 4 kts | 235° |
| 2026-04-25 14:12 | 2.71760 | 101.69283 | 42 ft | 14 kts | 244° |
| 2026-04-25 14:12 | 2.71798 | 101.69161 | 41 ft | 25 kts | 304° |
| 2026-04-25 14:12 | 2.71935 | 101.69017 | 42 ft | 20 kts | 327° |
| 2026-04-25 14:12 | 2.71948 | 101.69009 | 42 ft | 0 kts | 326° |
| 2026-04-25 14:13 | 2.71996 | 101.68976 | 42 ft | 34 kts | 326° |
| 2026-04-25 14:13 | 2.72396 | 101.68711 | 40 ft | 102 kts | 325° |
| 2026-04-25 14:14 | 2.73151 | 101.68202 | 42 ft | 157 kts | 326° |
| 2026-04-25 14:14 | 2.74043 | 101.67555 | 504 ft | 155 kts | 326° |
| 2026-04-25 14:14 | 2.74901 | 101.66976 | 1115 ft | 142 kts | 329° |
| 2026-04-25 14:14 | 2.75688 | 101.66379 | 1790 ft | 152 kts | 314° |
| 2026-04-25 14:15 | 2.76221 | 101.65319 | 2081 ft | 190 kts | 279° |
| 2026-04-25 14:15 | 2.76276 | 101.64887 | 2259 ft | 197 kts | 274° |
| 2026-04-25 14:15 | 2.76298 | 101.62519 | 3485 ft | 211 kts | 269° |
| 2026-04-25 14:15 | 2.76285 | 101.61032 | 4295 ft | 215 kts | 270° |
| 2026-04-25 14:16 | 2.76285 | 101.59522 | 5114 ft | 219 kts | 270° |
| 2026-04-25 14:16 | 2.76294 | 101.57986 | 5927 ft | 222 kts | 271° |
| 2026-04-25 14:16 | 2.76327 | 101.56440 | 6729 ft | 224 kts | 276° |
| 2026-04-25 14:16 | 2.76700 | 101.54926 | 7497 ft | 225 kts | 291° |
| 2026-04-25 14:17 | 2.77296 | 101.53469 | 8281 ft | 228 kts | 295° |
| 2026-04-25 14:17 | 2.77940 | 101.52007 | 9053 ft | 231 kts | 295° |
| 2026-04-25 14:17 | 2.78595 | 101.50527 | 9827 ft | 234 kts | 295° |
| 2026-04-25 14:17 | 2.79256 | 101.49024 | 10518 ft | 238 kts | 295° |
| 2026-04-25 14:18 | 2.79922 | 101.47498 | 11202 ft | 241 kts | 295° |
| 2026-04-25 14:18 | 2.80597 | 101.45947 | 11910 ft | 245 kts | 295° |
| 2026-04-25 14:18 | 2.81283 | 101.44367 | 12636 ft | 249 kts | 295° |
| 2026-04-25 14:18 | 2.81976 | 101.42768 | 13327 ft | 252 kts | 295° |
| 2026-04-25 14:19 | 2.82677 | 101.41150 | 13969 ft | 256 kts | 295° |
| 2026-04-25 14:19 | 2.83388 | 101.39509 | 14561 ft | 258 kts | 295° |
| 2026-04-25 14:19 | 2.84158 | 101.37879 | 15166 ft | 260 kts | 301° |
| 2026-04-25 14:19 | 2.85150 | 101.36363 | 15753 ft | 261 kts | 311° |
| 2026-04-25 14:20 | 2.86349 | 101.35024 | 16350 ft | 262 kts | 317° |
| 2026-04-25 14:20 | 2.86780 | 101.34583 | 16556 ft | 263 kts | 317° |
| 2026-04-25 14:20 | 2.88953 | 101.32421 | 17560 ft | 267 kts | 318° |
| 2026-04-25 14:20 | 2.89401 | 101.31977 | 17761 ft | 268 kts | 318° |
| 2026-04-25 14:21 | 2.91192 | 101.30198 | 18519 ft | 273 kts | 318° |
| 2026-04-25 14:21 | 2.94295 | 101.27101 | 19700 ft | 279 kts | 317° |
| 2026-04-25 14:21 | 2.95673 | 101.25723 | 20219 ft | 282 kts | 317° |
| 2026-04-25 14:22 | 2.97065 | 101.24330 | 20743 ft | 284 kts | 317° |
| 2026-04-25 14:22 | 2.98470 | 101.22925 | 21260 ft | 287 kts | 317° |
| 2026-04-25 14:22 | 2.99871 | 101.21523 | 21750 ft | 290 kts | 317° |
| 2026-04-25 14:22 | 3.01305 | 101.20088 | 22245 ft | 293 kts | 317° |
| 2026-04-25 14:23 | 3.02757 | 101.18635 | 22758 ft | 296 kts | 317° |
| 2026-04-25 14:23 | 3.04221 | 101.17170 | 23275 ft | 299 kts | 317° |
| 2026-04-25 14:23 | 3.05699 | 101.15690 | 23747 ft | 302 kts | 317° |
| 2026-04-25 14:23 | 3.07192 | 101.14196 | 24175 ft | 305 kts | 317° |
| 2026-04-25 14:24 | 3.08209 | 101.13178 | 24458 ft | 306 kts | 317° |
| 2026-04-25 14:24 | 3.10215 | 101.11170 | 25030 ft | 310 kts | 317° |
| 2026-04-25 14:24 | 3.11742 | 101.09641 | 25443 ft | 312 kts | 317° |
| 2026-04-25 14:24 | 3.13281 | 101.08100 | 25863 ft | 315 kts | 317° |
| 2026-04-25 14:25 | 3.14836 | 101.06544 | 26267 ft | 317 kts | 317° |
| 2026-04-25 14:25 | 3.16404 | 101.04974 | 26665 ft | 320 kts | 317° |
| 2026-04-25 14:25 | 3.17982 | 101.03393 | 27052 ft | 322 kts | 317° |
| 2026-04-25 14:25 | 3.18516 | 101.02864 | 27178 ft | 323 kts | 318° |
| 2026-04-25 14:26 | 3.21430 | 101.00488 | 27778 ft | 326 kts | 330° |
| 2026-04-25 14:26 | 3.23389 | 100.99410 | 28130 ft | 326 kts | 338° |
| 2026-04-25 14:26 | 3.25516 | 100.98615 | 28483 ft | 327 kts | 347° |
| 2026-04-25 14:26 | 3.27743 | 100.98140 | 28834 ft | 328 kts | 355° |
| 2026-04-25 14:27 | 3.30019 | 100.97981 | 29172 ft | 329 kts | 1° |
| 2026-04-25 14:27 | 3.32327 | 100.97972 | 29525 ft | 331 kts | 2° |
| 2026-04-25 14:27 | 3.34640 | 100.97989 | 29839 ft | 335 kts | 2° |
| 2026-04-25 14:28 | 3.39326 | 100.98021 | 29915 ft | 337 kts | 2° |
| 2026-04-25 14:28 | 3.44032 | 100.98041 | 29914 ft | 338 kts | 2° |
| 2026-04-25 14:29 | 3.47944 | 100.98050 | 29907 ft | 339 kts | 0° |
| 2026-04-25 14:29 | 3.50290 | 100.97796 | 29906 ft | 340 kts | 349° |
| 2026-04-25 14:29 | 3.53258 | 100.96774 | 29912 ft | 342 kts | 337° |
| 2026-04-25 14:30 | 3.57533 | 100.94655 | 29909 ft | 344 kts | 334° |
| 2026-04-25 14:30 | 3.63226 | 100.91724 | 29905 ft | 344 kts | 334° |
| 2026-04-25 14:31 | 3.67451 | 100.89546 | 29905 ft | 344 kts | 334° |
| 2026-04-25 14:31 | 3.71705 | 100.87354 | 29906 ft | 344 kts | 334° |
| 2026-04-25 14:32 | 3.75958 | 100.85162 | 29901 ft | 343 kts | 334° |
| 2026-04-25 14:32 | 3.80200 | 100.82975 | 29900 ft | 342 kts | 334° |
| 2026-04-25 14:33 | 3.84455 | 100.80783 | 29903 ft | 351 kts | 334° |
| 2026-04-25 14:33 | 3.86678 | 100.79638 | 29798 ft | 368 kts | 334° |
| 2026-04-25 14:33 | 3.89053 | 100.78417 | 29203 ft | 396 kts | 334° |
| 2026-04-25 14:34 | 3.91535 | 100.77138 | 28721 ft | 404 kts | 334° |
| 2026-04-25 14:34 | 3.94042 | 100.75844 | 28194 ft | 405 kts | 334° |
| 2026-04-25 14:34 | 3.96545 | 100.74551 | 27673 ft | 405 kts | 334° |
| 2026-04-25 14:34 | 3.99051 | 100.73258 | 27157 ft | 405 kts | 334° |
| 2026-04-25 14:35 | 4.01523 | 100.71983 | 26642 ft | 406 kts | 334° |
| 2026-04-25 14:35 | 4.04039 | 100.70685 | 26097 ft | 407 kts | 334° |
| 2026-04-25 14:35 | 4.06555 | 100.69387 | 25565 ft | 407 kts | 334° |
| 2026-04-25 14:35 | 4.09077 | 100.68086 | 25027 ft | 408 kts | 335° |
| 2026-04-25 14:36 | 4.11608 | 100.66780 | 24483 ft | 409 kts | 335° |
| 2026-04-25 14:36 | 4.14139 | 100.65474 | 23946 ft | 410 kts | 335° |
| 2026-04-25 14:36 | 4.16676 | 100.64166 | 23372 ft | 411 kts | 335° |
| 2026-04-25 14:36 | 4.19222 | 100.62852 | 22747 ft | 411 kts | 335° |
| 2026-04-25 14:37 | 4.21763 | 100.61541 | 22164 ft | 409 kts | 335° |
| 2026-04-25 14:37 | 4.24287 | 100.60237 | 21640 ft | 407 kts | 335° |
| 2026-04-25 14:37 | 4.26800 | 100.58940 | 21075 ft | 405 kts | 335° |
| 2026-04-25 14:37 | 4.29303 | 100.57648 | 20534 ft | 403 kts | 335° |
| 2026-04-25 14:38 | 4.31797 | 100.56361 | 19971 ft | 402 kts | 335° |
| 2026-04-25 14:38 | 4.34269 | 100.55083 | 19486 ft | 398 kts | 335° |
| 2026-04-25 14:38 | 4.36721 | 100.53817 | 18982 ft | 395 kts | 335° |
| 2026-04-25 14:38 | 4.39122 | 100.52578 | 18539 ft | 391 kts | 335° |
| 2026-04-25 14:39 | 4.41535 | 100.51332 | 18010 ft | 389 kts | 335° |
| 2026-04-25 14:39 | 4.43934 | 100.50093 | 17471 ft | 386 kts | 335° |
| 2026-04-25 14:39 | 4.46312 | 100.48865 | 16957 ft | 383 kts | 335° |
| 2026-04-25 14:39 | 4.48671 | 100.47647 | 16431 ft | 380 kts | 335° |
| 2026-04-25 14:40 | 4.51013 | 100.46437 | 15912 ft | 377 kts | 335° |
| 2026-04-25 14:40 | 4.53332 | 100.45239 | 15408 ft | 374 kts | 335° |
| 2026-04-25 14:40 | 4.55635 | 100.44050 | 14917 ft | 371 kts | 335° |
| 2026-04-25 14:40 | 4.57918 | 100.42870 | 14423 ft | 368 kts | 335° |
| 2026-04-25 14:41 | 4.60187 | 100.41698 | 13943 ft | 365 kts | 335° |
| 2026-04-25 14:41 | 4.62438 | 100.40535 | 13451 ft | 362 kts | 334° |
| 2026-04-25 14:41 | 4.64666 | 100.39384 | 12931 ft | 359 kts | 334° |
| 2026-04-25 14:41 | 4.66876 | 100.38242 | 12414 ft | 356 kts | 334° |
| 2026-04-25 14:42 | 4.69063 | 100.37112 | 11908 ft | 352 kts | 334° |
| 2026-04-25 14:42 | 4.70505 | 100.36367 | 11578 ft | 350 kts | 334° |
| 2026-04-25 14:42 | 4.73388 | 100.34877 | 10920 ft | 346 kts | 334° |
| 2026-04-25 14:42 | 4.75521 | 100.33774 | 10419 ft | 344 kts | 334° |
| 2026-04-25 14:43 | 4.77637 | 100.32680 | 10062 ft | 337 kts | 334° |
| 2026-04-25 14:43 | 4.79654 | 100.31637 | 9883 ft | 324 kts | 334° |
| 2026-04-25 14:43 | 4.81617 | 100.30621 | 9716 ft | 311 kts | 334° |
| 2026-04-25 14:43 | 4.83508 | 100.29643 | 9450 ft | 302 kts | 334° |
| 2026-04-25 14:44 | 4.85373 | 100.28679 | 9005 ft | 301 kts | 334° |
| 2026-04-25 14:44 | 4.87229 | 100.27719 | 8599 ft | 299 kts | 334° |
| 2026-04-25 14:44 | 4.89075 | 100.26765 | 8171 ft | 297 kts | 334° |
| 2026-04-25 14:44 | 4.90907 | 100.25818 | 7758 ft | 295 kts | 334° |
| 2026-04-25 14:45 | 4.92724 | 100.24878 | 7363 ft | 293 kts | 334° |
| 2026-04-25 14:45 | 4.94533 | 100.23942 | 6958 ft | 291 kts | 334° |
| 2026-04-25 14:45 | 4.96330 | 100.23013 | 6562 ft | 288 kts | 334° |
| 2026-04-25 14:45 | 4.98101 | 100.22096 | 5988 ft | 286 kts | 334° |
| 2026-04-25 14:46 | 4.99863 | 100.21185 | 5419 ft | 283 kts | 334° |
| 2026-04-25 14:46 | 5.01607 | 100.20283 | 4800 ft | 282 kts | 333° |
| 2026-04-25 14:46 | 5.03381 | 100.19367 | 3851 ft | 292 kts | 333° |
| 2026-04-25 14:46 | 5.05227 | 100.18412 | 2950 ft | 305 kts | 333° |
| 2026-04-25 14:47 | 5.07125 | 100.17429 | 2342 ft | 306 kts | 333° |
| 2026-04-25 14:47 | 5.08366 | 100.16787 | 2121 ft | 300 kts | 333° |
| 2026-04-25 14:47 | 5.10750 | 100.15552 | 2021 ft | 275 kts | 333° |
| 2026-04-25 14:47 | 5.12435 | 100.14770 | 2016 ft | 263 kts | 342° |
| 2026-04-25 14:48 | 5.14208 | 100.14572 | 2014 ft | 249 kts | 8° |
| 2026-04-25 14:48 | 5.15751 | 100.15165 | 2020 ft | 230 kts | 34° |
| 2026-04-25 14:48 | 5.16954 | 100.16113 | 2018 ft | 217 kts | 41° |
| 2026-04-25 14:48 | 5.18074 | 100.17115 | 2020 ft | 216 kts | 42° |
| 2026-04-25 14:49 | 5.19191 | 100.18133 | 2018 ft | 217 kts | 42° |
| 2026-04-25 14:49 | 5.20310 | 100.19152 | 1939 ft | 218 kts | 42° |
| 2026-04-25 14:49 | 5.21460 | 100.20197 | 1421 ft | 229 kts | 42° |
| 2026-04-25 14:49 | 5.22653 | 100.21279 | 1055 ft | 227 kts | 42° |
| 2026-04-25 14:50 | 5.23808 | 100.22324 | 743 ft | 219 kts | 43° |
| 2026-04-25 14:50 | 5.24887 | 100.23300 | 553 ft | 197 kts | 42° |
| 2026-04-25 14:50 | 5.25845 | 100.24164 | 529 ft | 172 kts | 43° |
| 2026-04-25 14:50 | 5.26664 | 100.24905 | 580 ft | 148 kts | 43° |
| 2026-04-25 14:51 | 5.27433 | 100.25599 | 455 ft | 149 kts | 41° |
| 2026-04-25 14:51 | 5.28185 | 100.26269 | 210 ft | 140 kts | 43° |
| 2026-04-25 14:51 | 5.28864 | 100.26911 | 28 ft | 121 kts | 44° |
| 2026-04-25 14:51 | 5.29301 | 100.27311 | 27 ft | 71 kts | 41° |
| 2026-04-25 14:52 | 5.29644 | 100.27622 | 27 ft | 63 kts | 43° |
| 2026-04-25 14:52 | 5.29837 | 100.27783 | 29 ft | 27 kts | 28° |
| 2026-04-25 14:52 | 5.30008 | 100.27835 | 27 ft | 25 kts | 13° |
| 2026-04-25 14:52 | 5.30103 | 100.27841 | 26 ft | 16 kts | 327° |
| 2026-04-25 14:53 | 5.30066 | 100.27746 | 29 ft | 15 kts | 225° |
| 2026-04-25 14:53 | 5.29969 | 100.27654 | 26 ft | 23 kts | 222° |
| 2026-04-25 14:53 | 5.29835 | 100.27531 | 28 ft | 29 kts | 222° |
| 2026-04-25 14:53 | 5.29667 | 100.27379 | 28 ft | 36 kts | 221° |
| 2026-04-25 14:54 | 5.29472 | 100.27202 | 26 ft | 39 kts | 222° |
| 2026-04-25 14:54 | 5.29347 | 100.27063 | 30 ft | 21 kts | 271° |
| 2026-04-25 14:54 | 5.29405 | 100.26943 | 28 ft | 20 kts | 266° |
| 2026-04-25 14:54 | 5.29323 | 100.26848 | 27 ft | 21 kts | 222° |
| 2026-04-25 14:55 | 5.29245 | 100.26770 | 28 ft | 11 kts | 253° |
| 2026-04-25 14:55 | 5.29252 | 100.26728 | 27 ft | 9 kts | 302° |
| 2026-04-25 14:55 | 5.29270 | 100.26705 | 27 ft | 2 kts | 312° |
| 2026-04-25 14:55 | 5.29275 | 100.26700 | 26 ft | 1 kts | 311° |
| 2026-04-25 14:56 | 5.29275 | 100.26699 | 26 ft | 0 kts | 311° |